createdAt,value
2016-01-24T00:00:32.316Z,1010.21
2016-01-24T00:01:32.303Z,1010.18
2016-01-24T00:02:32.306Z,1010.17
2016-01-24T00:03:32.298Z,1010.08
2016-01-24T00:04:32.289Z,1010.02
2016-01-24T00:05:32.293Z,1010.04
2016-01-24T00:16:24.268Z,1009.9
2016-01-24T00:17:14.459Z,1009.9
2016-01-24T00:18:14.447Z,1009.88
2016-01-24T00:19:14.449Z,1009.9
2016-01-24T00:20:14.436Z,1009.89
2016-01-24T00:21:14.427Z,1009.88
2016-01-24T00:22:14.432Z,1009.82
2016-01-24T00:23:14.419Z,1009.85
2016-01-24T00:24:14.422Z,1009.83
2016-01-24T00:25:14.408Z,1009.87
2016-01-24T00:26:14.411Z,1009.9
2016-01-24T00:27:14.400Z,1009.97
2016-01-24T00:28:14.403Z,1009.91
2016-01-24T00:29:14.391Z,1009.92
2016-01-24T00:30:14.428Z,1009.85
2016-01-24T00:31:14.381Z,1009.88
2016-01-24T00:32:14.368Z,1009.85
2016-01-24T00:33:14.372Z,1009.9
2016-01-24T00:34:14.360Z,1009.87
2016-01-24T00:35:14.362Z,1009.9
2016-01-24T00:36:14.349Z,1009.9
2016-01-24T00:37:14.386Z,1009.89
2016-01-24T00:38:14.341Z,1009.86
2016-01-24T00:39:14.329Z,1009.86
2016-01-24T00:40:14.462Z,1009.87
2016-01-24T00:41:14.325Z,1009.86
2016-01-24T00:42:14.313Z,1009.87
2016-01-24T00:43:14.317Z,1009.89
2016-01-24T00:44:14.320Z,1009.86
2016-01-24T00:45:14.324Z,1009.87
2016-01-24T00:46:14.294Z,1009.82
2016-01-24T00:47:14.298Z,1009.79
2016-01-24T00:48:14.289Z,1009.78
2016-01-24T00:49:14.291Z,1009.75
2016-01-24T00:50:14.278Z,1009.7
2016-01-24T00:51:14.267Z,1009.71
2016-01-24T00:52:14.271Z,1009.67
2016-01-24T00:53:14.259Z,1009.62
2016-01-24T00:54:14.261Z,1009.62
2016-01-24T00:55:14.264Z,1009.59
2016-01-24T00:56:14.252Z,1009.58
2016-01-24T00:57:14.239Z,1009.59
2016-01-24T00:58:14.242Z,1009.57
2016-01-24T00:59:14.230Z,1009.52
2016-01-24T01:00:14.235Z,1009.49
2016-01-24T01:01:14.223Z,1009.52
2016-01-24T01:02:14.210Z,1009.5
2016-01-24T01:03:14.213Z,1009.57
2016-01-24T01:04:14.215Z,1009.53
2016-01-24T01:05:14.205Z,1009.57
2016-01-24T01:06:14.207Z,1009.63
2016-01-24T01:07:14.196Z,1009.63
2016-01-24T01:08:14.183Z,1009.61
2016-01-24T01:09:14.218Z,1009.63
2016-01-24T01:10:14.205Z,1009.61
2016-01-24T01:11:14.181Z,1009.59
2016-01-24T01:12:14.182Z,1009.55
2016-01-24T01:13:14.154Z,1009.5
2016-01-24T01:14:14.157Z,1009.53
2016-01-24T01:15:14.160Z,1009.55
2016-01-24T01:16:14.140Z,1009.51
2016-01-24T01:17:14.114Z,1009.51
2016-01-24T01:18:14.104Z,1009.51
2016-01-24T01:19:14.079Z,1009.55
2016-01-24T01:20:14.057Z,1009.5
2016-01-24T01:21:14.066Z,1009.51
2016-01-24T01:22:14.050Z,1009.54
2016-01-24T01:23:14.051Z,1009.52
2016-01-24T01:24:14.018Z,1009.52
2016-01-24T01:25:14.016Z,1009.5
2016-01-24T01:26:14.001Z,1009.48
2016-01-24T01:27:14.002Z,1009.47
2016-01-24T01:28:13.988Z,1009.49
2016-01-24T01:29:13.988Z,1009.53
2016-01-24T01:30:13.979Z,1009.51
2016-01-24T01:31:13.965Z,1009.52
2016-01-24T01:32:13.967Z,1009.52
2016-01-24T01:33:13.953Z,1009.52
2016-01-24T01:34:13.945Z,1009.56
2016-01-24T01:35:13.946Z,1009.52
2016-01-24T01:36:13.948Z,1009.49
2016-01-24T01:37:13.936Z,1009.5
2016-01-24T01:38:13.923Z,1009.51
2016-01-24T01:39:13.912Z,1009.51
2016-01-24T01:40:13.914Z,1009.5
2016-01-24T01:41:13.917Z,1009.49
2016-01-24T01:42:13.905Z,1009.49
2016-01-24T01:43:13.891Z,1009.48
2016-01-24T01:44:13.894Z,1009.4
2016-01-24T01:45:13.898Z,1009.44
2016-01-24T01:46:13.887Z,1009.42
2016-01-24T01:47:13.874Z,1009.44
2016-01-24T01:48:13.876Z,1009.47
2016-01-24T01:49:13.863Z,1009.45
2016-01-24T01:50:13.887Z,1009.43
2016-01-24T01:51:13.858Z,1009.46
2016-01-24T01:52:13.891Z,1009.45
2016-01-24T01:53:13.834Z,1009.46
2016-01-24T01:54:13.837Z,1009.42
2016-01-24T01:55:13.872Z,1009.41
2016-01-24T01:56:13.828Z,1009.37
2016-01-24T01:57:13.818Z,1009.43
2016-01-24T01:58:13.821Z,1009.38
2016-01-24T01:59:14.120Z,1009.41
2016-01-24T02:00:13.889Z,1009.38
2016-01-24T02:01:13.799Z,1009.36
2016-01-24T02:02:13.787Z,1009.33
2016-01-24T02:03:13.789Z,1009.32
2016-01-24T02:04:13.776Z,1009.37
2016-01-24T02:05:13.780Z,1009.41
2016-01-24T02:06:13.767Z,1009.42
2016-01-24T02:07:13.775Z,1009.41
2016-01-24T02:08:13.761Z,1009.43
2016-01-24T02:09:13.752Z,1009.47
2016-01-24T02:10:13.754Z,1009.41
2016-01-24T02:11:13.746Z,1009.36
2016-01-24T02:12:13.732Z,1009.39
2016-01-24T02:13:13.721Z,1009.33
2016-01-24T02:14:13.724Z,1009.34
2016-01-24T02:15:13.712Z,1009.26
2016-01-24T02:16:13.716Z,1009.27
2016-01-24T02:17:13.702Z,1009.25
2016-01-24T02:18:13.705Z,1009.24
2016-01-24T02:19:13.692Z,1009.19
2016-01-24T02:20:13.683Z,1009.22
2016-01-24T02:21:13.719Z,1009.14
2016-01-24T02:22:13.675Z,1009.14
2016-01-24T02:23:13.680Z,1009.11
2016-01-24T02:24:13.667Z,1009.12
2016-01-24T02:25:13.671Z,1009.18
2016-01-24T02:26:13.658Z,1009.16
2016-01-24T02:27:13.645Z,1009.17
2016-01-24T02:28:13.650Z,1009.18
2016-01-24T02:29:13.638Z,1009.18
2016-01-24T02:30:13.625Z,1009.16
2016-01-24T02:31:13.627Z,1009.19
2016-01-24T02:32:13.614Z,1009.25
2016-01-24T02:33:13.618Z,1009.26
2016-01-24T02:34:13.606Z,1009.27
2016-01-24T02:35:13.655Z,1009.23
2016-01-24T02:36:13.596Z,1009.22
2016-01-24T02:37:13.600Z,1009.18
2016-01-24T02:38:13.587Z,1009.17
2016-01-24T02:39:13.575Z,1009.19
2016-01-24T02:40:13.609Z,1009.15
2016-01-24T02:41:13.565Z,1009.11
2016-01-24T02:42:13.584Z,1009.14
2016-01-24T02:43:13.554Z,1009.1
2016-01-24T02:44:13.558Z,1009.13
2016-01-24T02:45:13.546Z,1009.11
2016-01-24T02:46:13.534Z,1009.12
2016-01-24T02:47:13.536Z,1009.1
2016-01-24T02:48:13.526Z,1009.09
2016-01-24T02:49:13.529Z,1009.05
2016-01-24T02:50:13.518Z,1009.07
2016-01-24T02:51:13.521Z,1009.07
2016-01-24T02:52:13.508Z,1009.06
2016-01-24T02:53:13.492Z,1009.05
2016-01-24T02:54:13.494Z,1009.04
2016-01-24T02:55:13.482Z,1009
2016-01-24T02:56:13.486Z,1009.03
2016-01-24T02:57:13.488Z,1009.04
2016-01-24T02:58:13.460Z,1008.98
2016-01-24T02:59:13.462Z,1008.95
2016-01-24T03:00:13.467Z,1008.91
2016-01-24T03:01:13.454Z,1008.88
2016-01-24T03:02:13.441Z,1008.96
2016-01-24T03:03:13.444Z,1008.93
2016-01-24T03:04:13.432Z,1008.94
2016-01-24T03:05:13.421Z,1008.94
2016-01-24T03:06:13.423Z,1008.96
2016-01-24T03:07:13.412Z,1008.98
2016-01-24T03:08:13.399Z,1008.94
2016-01-24T03:09:13.417Z,1008.93
2016-01-24T03:10:13.391Z,1008.88
2016-01-24T03:11:13.396Z,1008.85
2016-01-24T03:12:13.382Z,1008.81
2016-01-24T03:13:13.370Z,1008.79
2016-01-24T03:14:13.374Z,1008.73
2016-01-24T03:15:13.440Z,1008.76
2016-01-24T03:16:13.365Z,1008.73
2016-01-24T03:17:13.351Z,1008.7
2016-01-24T03:18:13.339Z,1008.76
2016-01-24T03:19:13.344Z,1008.67
2016-01-24T03:20:13.330Z,1008.67
2016-01-24T03:21:13.333Z,1008.64
2016-01-24T03:22:13.320Z,1008.64
2016-01-24T03:23:13.308Z,1008.6
2016-01-24T03:24:13.311Z,1008.6
2016-01-24T03:25:13.351Z,1008.56
2016-01-24T03:26:13.291Z,1008.5
2016-01-24T03:27:13.293Z,1008.52
2016-01-24T03:28:13.281Z,1008.52
2016-01-24T03:29:13.284Z,1008.52
2016-01-24T03:30:13.271Z,1008.47
2016-01-24T03:31:13.274Z,1008.51
2016-01-24T03:32:13.262Z,1008.5
2016-01-24T03:33:13.251Z,1008.53
2016-01-24T03:34:13.239Z,1008.52
2016-01-24T03:35:13.305Z,1008.53
2016-01-24T03:36:13.229Z,1008.54
2016-01-24T03:37:13.233Z,1008.6
2016-01-24T03:38:13.220Z,1008.61
2016-01-24T03:39:13.224Z,1008.66
2016-01-24T03:40:13.210Z,1008.61
2016-01-24T03:41:13.200Z,1008.62
2016-01-24T03:42:13.234Z,1008.58
2016-01-24T03:43:13.192Z,1008.58
2016-01-24T03:44:13.183Z,1008.65
2016-01-24T03:45:13.171Z,1008.61
2016-01-24T03:46:13.174Z,1008.62
2016-01-24T03:47:13.177Z,1008.62
2016-01-24T03:48:13.165Z,1008.61
2016-01-24T03:49:13.153Z,1008.62
2016-01-24T03:50:13.171Z,1008.56
2016-01-24T03:51:13.128Z,1008.46
2016-01-24T03:52:13.131Z,1008.44
2016-01-24T03:53:13.176Z,1008.48
2016-01-24T03:54:13.118Z,1008.46
2016-01-24T03:55:13.124Z,1008.46
2016-01-24T03:56:13.097Z,1008.46
2016-01-24T03:57:13.100Z,1008.48
2016-01-24T03:58:13.089Z,1008.43
2016-01-24T03:59:13.091Z,1008.39
2016-01-24T04:00:13.110Z,1008.45
2016-01-24T04:01:13.067Z,1008.46
2016-01-24T04:02:13.057Z,1008.45
2016-01-24T04:03:13.060Z,1008.43
2016-01-24T04:04:13.048Z,1008.48
2016-01-24T04:05:13.051Z,1008.45
2016-01-24T04:06:13.038Z,1008.45
2016-01-24T04:07:13.040Z,1008.41
2016-01-24T04:08:13.028Z,1008.45
2016-01-24T04:09:13.017Z,1008.45
2016-01-24T04:10:13.068Z,1008.44
2016-01-24T04:11:13.007Z,1008.46
2016-01-24T04:12:12.995Z,1008.4
2016-01-24T04:13:12.983Z,1008.37
2016-01-24T04:14:12.987Z,1008.38
2016-01-24T04:15:12.989Z,1008.36
2016-01-24T04:16:12.977Z,1008.45
2016-01-24T04:17:12.965Z,1008.46
2016-01-24T04:18:12.951Z,1008.44
2016-01-24T04:19:12.954Z,1008.49
2016-01-24T04:20:12.942Z,1008.51
2016-01-24T04:21:12.938Z,1008.54
2016-01-24T04:22:12.925Z,1008.52
2016-01-24T04:23:12.913Z,1008.56
2016-01-24T04:24:12.917Z,1008.65
2016-01-24T04:25:12.982Z,1008.67
2016-01-24T04:26:12.892Z,1008.64
2016-01-24T04:27:12.894Z,1008.64
2016-01-24T04:28:12.884Z,1008.62
2016-01-24T04:29:12.886Z,1008.66
2016-01-24T04:30:12.937Z,1008.62
2016-01-24T04:31:12.861Z,1008.63
2016-01-24T04:32:12.864Z,1008.64
2016-01-24T04:33:12.851Z,1008.64
2016-01-24T04:34:12.839Z,1008.67
2016-01-24T04:35:12.874Z,1008.74
2016-01-24T04:36:12.830Z,1008.64
2016-01-24T04:37:12.832Z,1008.65
2016-01-24T04:38:12.823Z,1008.65
2016-01-24T04:39:12.814Z,1008.67
2016-01-24T04:40:12.895Z,1008.59
2016-01-24T04:41:12.787Z,1008.55
2016-01-24T04:42:12.791Z,1008.52
2016-01-24T04:43:12.778Z,1008.47
2016-01-24T04:44:12.785Z,1008.4
2016-01-24T04:45:12.820Z,1008.4
2016-01-24T04:46:12.760Z,1008.32
2016-01-24T04:47:12.763Z,1008.26
2016-01-24T04:48:12.751Z,1008.27
2016-01-24T04:49:12.739Z,1008.29
2016-01-24T04:50:12.810Z,1008.22
2016-01-24T04:51:12.735Z,1008.24
2016-01-24T04:52:12.724Z,1008.29
2016-01-24T04:53:12.712Z,1008.27
2016-01-24T04:54:12.714Z,1008.22
2016-01-24T04:55:12.779Z,1008.23
2016-01-24T04:56:12.710Z,1008.2
2016-01-24T04:57:12.689Z,1008.23
2016-01-24T04:58:12.699Z,1008.19
2016-01-24T04:59:12.700Z,1008.15
2016-01-24T05:00:12.671Z,1008.15
2016-01-24T05:01:12.658Z,1008.17
2016-01-24T05:02:12.661Z,1008.2
2016-01-24T05:03:12.664Z,1008.17
2016-01-24T05:04:12.651Z,1008.08
2016-01-24T05:05:12.638Z,1008.14
2016-01-24T05:06:12.626Z,1008.1
2016-01-24T05:07:12.629Z,1008.13
2016-01-24T05:08:12.616Z,1008.12
2016-01-24T05:09:12.605Z,1008.15
2016-01-24T05:10:12.608Z,1008.12
2016-01-24T05:11:12.611Z,1008.06
2016-01-24T05:12:12.599Z,1008.04
2016-01-24T05:13:12.587Z,1007.97
2016-01-24T05:14:12.574Z,1008.03
2016-01-24T05:15:12.609Z,1007.97
2016-01-24T05:16:12.566Z,1007.97
2016-01-24T05:17:12.555Z,1007.98
2016-01-24T05:18:12.558Z,1007.92
2016-01-24T05:19:12.543Z,1007.93
2016-01-24T05:20:12.530Z,1007.9
2016-01-24T05:21:12.535Z,1007.86
2016-01-24T05:22:12.522Z,1007.89
2016-01-24T05:23:12.509Z,1007.86
2016-01-24T05:24:12.512Z,1007.89
2016-01-24T05:25:12.547Z,1007.86
2016-01-24T05:26:12.533Z,1007.9
2016-01-24T05:27:12.491Z,1007.91
2016-01-24T05:28:12.493Z,1007.85
2016-01-24T05:29:12.482Z,1007.87
2016-01-24T05:30:12.781Z,1007.88
2016-01-24T05:31:12.457Z,1007.9
2016-01-24T05:32:12.474Z,1007.95
2016-01-24T05:33:12.447Z,1007.97
2016-01-24T05:34:12.433Z,1008.01
2016-01-24T05:35:12.468Z,1008.05
2016-01-24T05:36:12.425Z,1008.09
2016-01-24T05:37:12.412Z,1008.13
2016-01-24T05:38:12.415Z,1008.1
2016-01-24T05:39:12.403Z,1008.13
2016-01-24T05:40:12.437Z,1008.18
2016-01-24T05:41:12.396Z,1008.13
2016-01-24T05:42:12.383Z,1008.22
2016-01-24T05:43:12.385Z,1008.23
2016-01-24T05:44:12.373Z,1008.28
2016-01-24T05:45:12.379Z,1008.31
2016-01-24T05:46:12.367Z,1008.33
2016-01-24T05:47:12.353Z,1008.31
2016-01-24T05:48:12.344Z,1008.35
2016-01-24T05:49:12.348Z,1008.37
2016-01-24T05:50:12.414Z,1008.34
2016-01-24T05:51:12.338Z,1008.32
2016-01-24T05:52:12.325Z,1008.37
2016-01-24T05:53:12.313Z,1008.33
2016-01-24T05:54:12.316Z,1008.33
2016-01-24T05:55:12.305Z,1008.32
2016-01-24T05:56:12.291Z,1008.29
2016-01-24T05:57:12.622Z,1008.33
2016-01-24T05:58:12.297Z,1008.35
2016-01-24T05:59:12.284Z,1008.33
2016-01-24T06:00:12.320Z,1008.32
2016-01-24T06:01:12.260Z,1008.36
2016-01-24T06:02:12.262Z,1008.35
2016-01-24T06:03:12.266Z,1008.3
2016-01-24T06:04:12.238Z,1008.28
2016-01-24T06:05:12.287Z,1008.21
2016-01-24T06:06:12.227Z,1008.18
2016-01-24T06:07:12.219Z,1008.18
2016-01-24T06:08:12.224Z,1008.14
2016-01-24T06:09:12.211Z,1008.14
2016-01-24T06:10:12.197Z,1008.19
2016-01-24T06:11:12.199Z,1008.25
2016-01-24T06:12:12.202Z,1008.23
2016-01-24T06:13:12.191Z,1008.23
2016-01-24T06:14:12.178Z,1008.2
2016-01-24T06:15:12.180Z,1008.17
2016-01-24T06:16:12.167Z,1008.15
2016-01-24T06:17:12.156Z,1008.21
2016-01-24T06:18:12.144Z,1008.2
2016-01-24T06:19:12.147Z,1008.11
2016-01-24T06:20:12.214Z,1008.1
2016-01-24T06:21:12.124Z,1008.08
2016-01-24T06:22:12.127Z,1008.05
2016-01-24T06:23:12.115Z,1007.93
2016-01-24T06:24:12.101Z,1007.98
2016-01-24T06:25:12.136Z,1007.9
2016-01-24T06:26:12.091Z,1007.89
2016-01-24T06:27:12.095Z,1007.94
2016-01-24T06:28:12.085Z,1008.03
2016-01-24T06:29:12.072Z,1008.01
2016-01-24T06:30:12.090Z,1008.02
2016-01-24T06:31:12.063Z,1008.03
2016-01-24T06:32:12.051Z,1007.96
2016-01-24T06:33:12.054Z,1007.99
2016-01-24T06:34:12.041Z,1007.99
2016-01-24T06:35:12.028Z,1008
2016-01-24T06:36:12.035Z,1007.98
2016-01-24T06:37:12.068Z,1008.02
2016-01-24T06:38:12.013Z,1007.99
2016-01-24T06:39:12.016Z,1008.05
2016-01-24T06:40:12.064Z,1008.08
2016-01-24T06:41:11.990Z,1007.99
2016-01-24T06:42:11.994Z,1008.02
2016-01-24T06:43:11.982Z,1008.04
2016-01-24T06:44:11.985Z,1008.08
2016-01-24T06:45:11.990Z,1008.05
2016-01-24T06:46:11.962Z,1008.04
2016-01-24T06:47:11.950Z,1008.06
2016-01-24T06:48:11.999Z,1008
2016-01-24T06:49:11.940Z,1008.02
2016-01-24T06:50:11.927Z,1008.07
2016-01-24T06:51:11.932Z,1008.05
2016-01-24T06:52:11.924Z,1008.08
2016-01-24T06:53:11.911Z,1008.07
2016-01-24T06:54:11.914Z,1008.09
2016-01-24T06:55:11.902Z,1008.1
2016-01-24T06:56:11.891Z,1008.16
2016-01-24T06:57:11.878Z,1008.18
2016-01-24T06:58:11.880Z,1008.15
2016-01-24T06:59:11.883Z,1008.18
2016-01-24T07:00:11.871Z,1008.15
2016-01-24T07:01:11.859Z,1008.16
2016-01-24T07:02:11.861Z,1008.12
2016-01-24T07:03:11.852Z,1008.14
2016-01-24T07:04:11.840Z,1008.13
2016-01-24T07:05:11.831Z,1008.16
2016-01-24T07:06:11.835Z,1008.12
2016-01-24T07:07:11.821Z,1008.11
2016-01-24T07:08:11.823Z,1008.13
2016-01-24T07:09:11.828Z,1008.05
2016-01-24T07:10:11.802Z,1008.1
2016-01-24T07:11:11.805Z,1008.14
2016-01-24T07:12:11.791Z,1008.24
2016-01-24T07:13:11.794Z,1008.23
2016-01-24T07:14:11.782Z,1008.24
2016-01-24T07:15:11.817Z,1008.28
2016-01-24T07:16:11.772Z,1008.22
2016-01-24T07:17:11.790Z,1008.25
2016-01-24T07:18:11.771Z,1008.24
2016-01-24T07:19:11.743Z,1008.27
2016-01-24T07:20:11.730Z,1008.27
2016-01-24T07:21:11.732Z,1008.35
2016-01-24T07:22:11.720Z,1008.37
2016-01-24T07:23:11.723Z,1008.36
2016-01-24T07:24:11.712Z,1008.43
2016-01-24T07:25:11.745Z,1008.35
2016-01-24T07:26:11.701Z,1008.34
2016-01-24T07:27:11.688Z,1008.3
2016-01-24T07:28:11.676Z,1008.25
2016-01-24T07:29:11.680Z,1008.2
2016-01-24T07:30:11.668Z,1008.18
2016-01-24T07:31:11.671Z,1008.21
2016-01-24T07:32:11.657Z,1008.27
2016-01-24T07:33:11.647Z,1008.27
2016-01-24T07:34:11.652Z,1008.34
2016-01-24T07:35:11.639Z,1008.35
2016-01-24T07:36:11.626Z,1008.36
2016-01-24T07:37:11.629Z,1008.33
2016-01-24T07:38:11.619Z,1008.36
2016-01-24T07:39:11.652Z,1008.36
2016-01-24T07:40:11.609Z,1008.36
2016-01-24T07:41:11.596Z,1008.29
2016-01-24T07:42:11.927Z,1008.29
2016-01-24T07:43:11.587Z,1008.31
2016-01-24T07:44:11.574Z,1008.31
2016-01-24T07:45:11.578Z,1008.29
2016-01-24T07:46:11.565Z,1008.23
2016-01-24T07:47:11.553Z,1008.39
2016-01-24T07:48:11.550Z,1008.38
2016-01-24T07:49:11.537Z,1008.32
2016-01-24T07:50:11.540Z,1008.26
2016-01-24T07:51:11.542Z,1008.23
2016-01-24T07:52:11.532Z,1008.24
2016-01-24T07:53:11.549Z,1008.11
2016-01-24T07:54:11.523Z,1008.1
2016-01-24T07:55:11.510Z,1008.04
2016-01-24T07:56:11.497Z,1008.1
2016-01-24T07:57:11.501Z,1008.12
2016-01-24T07:58:11.491Z,1008.24
2016-01-24T07:59:11.494Z,1008.23
2016-01-24T08:00:11.496Z,1008.25
2016-01-24T08:01:11.486Z,1008.26
2016-01-24T08:02:11.475Z,1008.33
2016-01-24T08:03:11.462Z,1008.35
2016-01-24T08:04:11.464Z,1008.38
2016-01-24T08:05:11.452Z,1008.42
2016-01-24T08:06:11.439Z,1008.44
2016-01-24T08:07:11.443Z,1008.41
2016-01-24T08:08:11.434Z,1008.34
2016-01-24T08:09:11.436Z,1008.21
2016-01-24T08:10:11.424Z,1008.13
2016-01-24T08:11:11.412Z,1008.1
2016-01-24T08:12:11.415Z,1008.05
2016-01-24T08:13:11.466Z,1008.04
2016-01-24T08:14:11.484Z,1007.99
2016-01-24T08:15:11.393Z,1007.96
2016-01-24T08:16:11.395Z,1007.98
2016-01-24T08:17:11.384Z,1008
2016-01-24T08:18:11.386Z,1008.07
2016-01-24T08:19:11.373Z,1008.21
2016-01-24T08:20:11.376Z,1008.18
2016-01-24T08:21:11.365Z,1008.15
2016-01-24T08:22:11.353Z,1008.06
2016-01-24T08:23:11.371Z,1008.02
2016-01-24T08:24:11.343Z,1008.07
2016-01-24T08:25:11.347Z,1008.19
2016-01-24T08:26:11.335Z,1008.25
2016-01-24T08:27:11.337Z,1008.22
2016-01-24T08:28:11.324Z,1008.26
2016-01-24T08:29:11.327Z,1008.3
2016-01-24T08:30:11.313Z,1008.25
2016-01-24T08:31:11.317Z,1008.2
2016-01-24T08:32:11.305Z,1008.19
2016-01-24T08:33:11.308Z,1008.18
2016-01-24T08:34:11.311Z,1008.14
2016-01-24T08:35:11.299Z,1008.03
2016-01-24T08:36:11.288Z,1008
2016-01-24T08:37:11.274Z,1008
2016-01-24T08:38:11.277Z,1008.07
2016-01-24T08:39:11.281Z,1008.09
2016-01-24T08:40:11.269Z,1008.1
2016-01-24T08:41:11.258Z,1008.11
2016-01-24T08:42:11.263Z,1008.06
2016-01-24T08:43:11.250Z,1008.08
2016-01-24T08:44:11.253Z,1008.1
2016-01-24T08:45:11.241Z,1008.16
2016-01-24T08:46:11.229Z,1008.17
2016-01-24T08:47:11.232Z,1008.14
2016-01-24T08:48:11.220Z,1008.17
2016-01-24T08:49:11.224Z,1008.18
2016-01-24T08:50:11.210Z,1008.16
2016-01-24T08:51:11.214Z,1008.21
2016-01-24T08:52:11.216Z,1008.21
2016-01-24T08:53:11.204Z,1008.26
2016-01-24T08:54:11.208Z,1008.27
2016-01-24T08:55:11.195Z,1008.29
2016-01-24T08:56:11.182Z,1008.33
2016-01-24T08:57:11.185Z,1008.33
2016-01-24T08:58:11.173Z,1008.32
2016-01-24T08:59:11.177Z,1008.32
2016-01-24T09:00:11.165Z,1008.36
2016-01-24T09:01:11.168Z,1008.42
2016-01-24T09:02:11.171Z,1008.49
2016-01-24T09:03:11.157Z,1008.56
2016-01-24T09:04:11.145Z,1008.59
2016-01-24T09:05:11.149Z,1008.57
2016-01-24T09:06:11.136Z,1008.45
2016-01-24T09:07:11.138Z,1008.38
2016-01-24T09:08:11.141Z,1008.3
2016-01-24T09:09:11.129Z,1008.24
2016-01-24T09:10:11.119Z,1008.24
2016-01-24T09:11:11.122Z,1008.24
2016-01-24T09:12:11.109Z,1008.25
2016-01-24T09:13:11.111Z,1008.31
2016-01-24T09:14:11.114Z,1008.3
2016-01-24T09:15:11.117Z,1008.32
2016-01-24T09:16:11.120Z,1008.27
2016-01-24T09:17:11.094Z,1008.28
2016-01-24T09:18:11.098Z,1008.29
2016-01-24T09:19:11.089Z,1008.21
2016-01-24T09:20:11.093Z,1008.05
2016-01-24T09:21:11.079Z,1007.96
2016-01-24T09:22:11.081Z,1007.98
2016-01-24T09:23:11.071Z,1007.91
2016-01-24T09:24:11.058Z,1007.92
2016-01-24T09:25:11.063Z,1007.97
2016-01-24T09:26:11.081Z,1007.98
2016-01-24T09:27:11.053Z,1008.04
2016-01-24T09:28:11.056Z,1008.1
2016-01-24T09:29:11.091Z,1008.12
2016-01-24T09:30:11.031Z,1008.17
2016-01-24T09:31:11.033Z,1008.2
2016-01-24T09:32:11.068Z,1008.18
2016-01-24T09:33:11.025Z,1008.14
2016-01-24T09:34:11.027Z,1008.08
2016-01-24T09:35:11.016Z,1008.02
2016-01-24T09:36:11.018Z,1008.06
2016-01-24T09:37:11.009Z,1008.01
2016-01-24T09:38:10.997Z,1007.99
2016-01-24T09:39:11.000Z,1007.95
2016-01-24T09:40:11.002Z,1007.97
2016-01-24T09:41:10.989Z,1007.93
2016-01-24T09:42:10.994Z,1007.97
2016-01-24T09:43:10.982Z,1007.99
2016-01-24T09:44:10.984Z,1008.03
2016-01-24T09:45:10.972Z,1008.07
2016-01-24T09:46:10.975Z,1008.07
2016-01-24T09:47:10.969Z,1008.05
2016-01-24T09:48:10.956Z,1008.02
2016-01-24T09:49:10.960Z,1007.96
2016-01-24T09:50:10.947Z,1007.97
2016-01-24T09:51:10.949Z,1007.87
2016-01-24T09:52:10.953Z,1007.87
2016-01-24T09:53:10.941Z,1007.9
2016-01-24T09:54:10.944Z,1007.78
2016-01-24T09:55:10.931Z,1007.76
2016-01-24T09:56:10.938Z,1007.77
2016-01-24T09:57:10.927Z,1007.79
2016-01-24T09:58:10.945Z,1007.83
2016-01-24T09:59:10.933Z,1007.78
2016-01-24T10:00:10.920Z,1007.8
2016-01-24T10:01:10.923Z,1007.76
2016-01-24T10:02:10.912Z,1007.8
2016-01-24T10:03:10.898Z,1007.71
2016-01-24T10:04:10.901Z,1007.76
2016-01-24T10:05:10.890Z,1007.73
2016-01-24T10:06:10.893Z,1007.79
2016-01-24T10:07:10.882Z,1007.82
2016-01-24T10:08:10.884Z,1007.85
2016-01-24T10:09:10.887Z,1007.9
2016-01-24T10:10:10.874Z,1007.84
2016-01-24T10:11:10.876Z,1007.96
2016-01-24T10:12:10.864Z,1007.91
2016-01-24T10:13:10.867Z,1007.93
2016-01-24T10:14:10.870Z,1007.92
2016-01-24T10:15:10.859Z,1007.83
2016-01-24T10:16:10.865Z,1007.85
2016-01-24T10:17:10.853Z,1007.82
2016-01-24T10:18:10.853Z,1007.8
2016-01-24T10:19:10.841Z,1007.8
2016-01-24T10:20:10.848Z,1007.79
2016-01-24T10:21:10.836Z,1007.82
2016-01-24T10:22:10.832Z,1007.85
2016-01-24T10:23:10.808Z,1007.9
2016-01-24T10:24:10.800Z,1007.93
2016-01-24T10:25:10.792Z,1007.99
2016-01-24T10:26:10.769Z,1008.07
2016-01-24T10:27:10.769Z,1008.11
2016-01-24T10:28:10.767Z,1008.1
2016-01-24T10:29:10.751Z,1008.09
2016-01-24T10:30:10.750Z,1008.11
2016-01-24T10:31:10.749Z,1008.15
2016-01-24T10:32:10.735Z,1008.18
2016-01-24T10:33:10.737Z,1008.11
2016-01-24T10:34:10.738Z,1008.17
2016-01-24T10:35:10.726Z,1008.26
2016-01-24T10:36:10.713Z,1008.3
2016-01-24T10:37:10.715Z,1008.21
2016-01-24T10:38:10.717Z,1008.08
2016-01-24T10:39:10.720Z,1008.12
2016-01-24T10:40:10.725Z,1008.08
2016-01-24T10:41:10.711Z,1008.07
2016-01-24T10:42:10.701Z,1008.04
2016-01-24T10:43:10.687Z,1007.99
2016-01-24T10:44:10.689Z,1007.98
2016-01-24T10:45:10.691Z,1007.96
2016-01-24T10:46:10.694Z,1007.87
2016-01-24T10:47:10.682Z,1007.83
2016-01-24T10:48:10.687Z,1007.79
2016-01-24T10:49:10.691Z,1007.69
2016-01-24T10:50:10.680Z,1007.67
2016-01-24T10:51:10.684Z,1007.63
2016-01-24T10:52:10.672Z,1007.62
2016-01-24T10:53:10.675Z,1007.65
2016-01-24T10:54:10.677Z,1007.64
2016-01-24T10:55:10.666Z,1007.62
2016-01-24T10:56:10.669Z,1007.74
2016-01-24T10:57:10.688Z,1007.76
2016-01-24T10:58:10.643Z,1007.79
2016-01-24T10:59:10.649Z,1007.83
2016-01-24T11:00:10.637Z,1007.83
2016-01-24T11:01:10.639Z,1007.81
2016-01-24T11:02:10.627Z,1007.75
2016-01-24T11:03:10.630Z,1007.73
2016-01-24T11:04:10.633Z,1007.65
2016-01-24T11:05:10.621Z,1007.64
2016-01-24T11:06:10.626Z,1007.62
2016-01-24T11:07:10.612Z,1007.57
2016-01-24T11:08:10.615Z,1007.61
2016-01-24T11:09:10.618Z,1007.64
2016-01-24T11:10:10.622Z,1007.69
2016-01-24T11:11:10.641Z,1007.68
2016-01-24T11:12:10.613Z,1007.72
2016-01-24T11:13:10.616Z,1007.65
2016-01-24T11:14:10.602Z,1007.6
2016-01-24T11:15:10.606Z,1007.65
2016-01-24T11:16:10.610Z,1007.64
2016-01-24T11:17:10.596Z,1007.62
2016-01-24T11:18:10.631Z,1007.63
2016-01-24T11:19:10.596Z,1007.64
2016-01-24T11:20:10.598Z,1007.59
2016-01-24T11:21:10.601Z,1007.52
2016-01-24T11:22:10.587Z,1007.54
2016-01-24T11:23:10.594Z,1007.56
2016-01-24T11:24:10.581Z,1007.62
2016-01-24T11:25:10.601Z,1007.64
2016-01-24T11:26:10.587Z,1007.67
2016-01-24T11:27:10.575Z,1007.75
2016-01-24T11:28:10.578Z,1007.76
2016-01-24T11:29:10.581Z,1007.72
2016-01-24T11:30:10.584Z,1007.74
2016-01-24T11:31:10.573Z,1007.75
2016-01-24T11:32:10.576Z,1007.71
2016-01-24T11:33:10.562Z,1007.73
2016-01-24T11:34:10.566Z,1007.71
2016-01-24T11:35:10.569Z,1007.7
2016-01-24T11:36:10.558Z,1007.73
2016-01-24T11:37:10.560Z,1007.7
2016-01-24T11:38:10.566Z,1007.69
2016-01-24T11:39:10.553Z,1007.65
2016-01-24T11:40:10.556Z,1007.62
2016-01-24T11:41:10.559Z,1007.72
2016-01-24T11:42:10.545Z,1007.71
2016-01-24T11:43:10.548Z,1007.71
2016-01-24T11:44:10.553Z,1007.7
2016-01-24T11:45:10.541Z,1007.68
2016-01-24T11:46:10.543Z,1007.62
2016-01-24T11:47:10.546Z,1007.6
2016-01-24T11:48:10.535Z,1007.58
2016-01-24T11:49:10.546Z,1007.59
2016-01-24T11:50:10.533Z,1007.58
2016-01-24T11:51:10.535Z,1007.55
2016-01-24T11:52:10.538Z,1007.56
2016-01-24T11:53:10.525Z,1007.53
2016-01-24T11:54:10.528Z,1007.51
2016-01-24T11:55:10.531Z,1007.48
2016-01-24T11:56:10.516Z,1007.44
2016-01-24T11:57:10.519Z,1007.42
2016-01-24T11:58:10.522Z,1007.48
2016-01-24T11:59:10.510Z,1007.46
2016-01-24T12:00:10.512Z,1007.44
2016-01-24T12:01:10.515Z,1007.42
2016-01-24T12:02:10.504Z,1007.42
2016-01-24T12:03:10.507Z,1007.43
2016-01-24T12:04:10.511Z,1007.44
2016-01-24T12:05:10.513Z,1007.37
2016-01-24T12:06:10.501Z,1007.4
2016-01-24T12:07:10.503Z,1007.43
2016-01-24T12:08:10.491Z,1007.42
2016-01-24T12:09:10.494Z,1007.4
2016-01-24T12:10:10.497Z,1007.41
2016-01-24T12:11:10.499Z,1007.37
2016-01-24T12:12:10.489Z,1007.34
2016-01-24T12:13:10.491Z,1007.35
2016-01-24T12:14:10.494Z,1007.3
2016-01-24T12:15:10.497Z,1007.34
2016-01-24T12:16:10.485Z,1007.32
2016-01-24T12:17:10.497Z,1007.32
2016-01-24T12:18:10.483Z,1007.33